sensor_id;sensor_type;location;lat;lon;timestamp;pressure;altitude;pressure_sealevel;temperature;humidity
10658;BME280;5377;43.276;26.930;2023-04-15T00:01:05;98406.72;;;12.60;100.00
10658;BME280;5377;43.276;26.930;2023-04-15T00:03:32;98414.06;;;12.64;100.00
10658;BME280;5377;43.276;26.930;2023-04-15T00:05:59;98410.81;;;12.74;100.00
10658;BME280;5377;43.276;26.930;2023-04-15T00:08:26;98409.97;;;12.73;100.00
10658;BME280;5377;43.276;26.930;2023-04-15T00:10:55;98407.41;;;12.67;100.00
10658;BME280;5377;43.276;26.930;2023-04-15T00:13:26;98408.59;;;12.71;100.00
10658;BME280;5377;43.276;26.930;2023-04-15T00:15:53;98416.63;;;12.71;100.00
10658;BME280;5377;43.276;26.930;2023-04-15T00:18:20;98428.91;;;12.67;100.00
10658;BME280;5377;43.276;26.930;2023-04-15T00:20:47;98425.28;;;12.73;100.00
10658;BME280;5377;43.276;26.930;2023-04-15T00:23:14;98414.31;;;12.86;100.00
10658;BME280;5377;43.276;26.930;2023-04-15T00:25:41;98429.72;;;12.91;100.00
10658;BME280;5377;43.276;26.930;2023-04-15T00:28:09;98430.88;;;12.83;100.00
10658;BME280;5377;43.276;26.930;2023-04-15T00:30:36;98446.22;;;12.94;100.00
10658;BME280;5377;43.276;26.930;2023-04-15T00:33:03;98465.03;;;12.94;100.00
10658;BME280;5377;43.276;26.930;2023-04-15T00:35:30;98448.19;;;12.87;100.00
10658;BME280;5377;43.276;26.930;2023-04-15T00:37:57;98451.13;;;12.97;100.00
10658;BME280;5377;43.276;26.930;2023-04-15T00:40:24;98465.16;;;12.88;100.00
10658;BME280;5377;43.276;26.930;2023-04-15T00:42:52;98481.72;;;12.96;100.00
10658;BME280;5377;43.276;26.930;2023-04-15T00:45:21;98496.22;;;12.84;100.00
10658;BME280;5377;43.276;26.930;2023-04-15T00:47:48;98488.50;;;12.75;100.00
10658;BME280;5377;43.276;26.930;2023-04-15T00:50:16;98481.81;;;12.78;100.00
10658;BME280;5377;43.276;26.930;2023-04-15T00:52:43;98445.63;;;12.69;100.00
10658;BME280;5377;43.276;26.930;2023-04-15T00:55:10;98459.97;;;12.74;100.00
10658;BME280;5377;43.276;26.930;2023-04-15T00:57:38;98480.66;;;12.62;100.00
10658;BME280;5377;43.276;26.930;2023-04-15T01:00:06;98487.06;;;12.61;100.00
10658;BME280;5377;43.276;26.930;2023-04-15T01:02:36;98456.72;;;12.61;100.00
10658;BME280;5377;43.276;26.930;2023-04-15T01:05:04;98459.41;;;12.61;100.00
10658;BME280;5377;43.276;26.930;2023-04-15T01:07:32;98457.75;;;12.60;100.00
10658;BME280;5377;43.276;26.930;2023-04-15T01:09:58;98429.97;;;12.54;100.00
10658;BME280;5377;43.276;26.930;2023-04-15T01:12:26;98461.69;;;12.45;100.00
10658;BME280;5377;43.276;26.930;2023-04-15T01:14:53;98465.16;;;12.23;100.00
10658;BME280;5377;43.276;26.930;2023-04-15T01:17:20;98447.56;;;11.97;100.00
10658;BME280;5377;43.276;26.930;2023-04-15T01:19:48;98456.81;;;12.01;100.00
10658;BME280;5377;43.276;26.930;2023-04-15T01:22:15;98469.81;;;11.85;100.00
10658;BME280;5377;43.276;26.930;2023-04-15T01:24:46;98469.38;;;11.52;100.00
10658;BME280;5377;43.276;26.930;2023-04-15T01:27:16;98469.91;;;11.42;100.00
10658;BME280;5377;43.276;26.930;2023-04-15T01:29:43;98481.88;;;11.40;100.00
10658;BME280;5377;43.276;26.930;2023-04-15T01:32:10;98487.69;;;11.37;100.00
10658;BME280;5377;43.276;26.930;2023-04-15T01:34:37;98492.84;;;11.38;100.00
10658;BME280;5377;43.276;26.930;2023-04-15T01:37:04;98479.97;;;11.29;100.00
10658;BME280;5377;43.276;26.930;2023-04-15T01:39:31;98467.31;;;11.17;100.00
10658;BME280;5377;43.276;26.930;2023-04-15T01:41:58;98461.22;;;11.10;100.00
10658;BME280;5377;43.276;26.930;2023-04-15T01:44:26;98476.00;;;11.31;100.00
10658;BME280;5377;43.276;26.930;2023-04-15T01:46:53;98480.34;;;11.32;100.00
10658;BME280;5377;43.276;26.930;2023-04-15T01:49:19;98477.81;;;11.19;100.00
10658;BME280;5377;43.276;26.930;2023-04-15T01:51:46;98485.13;;;11.05;100.00
10658;BME280;5377;43.276;26.930;2023-04-15T01:54:13;98477.47;;;11.09;100.00
10658;BME280;5377;43.276;26.930;2023-04-15T01:56:40;98480.72;;;11.17;100.00
10658;BME280;5377;43.276;26.930;2023-04-15T01:59:07;98470.47;;;11.08;100.00
10658;BME280;5377;43.276;26.930;2023-04-15T02:01:35;98485.59;;;11.02;100.00
10658;BME280;5377;43.276;26.930;2023-04-15T02:04:02;98490.34;;;11.00;100.00
10658;BME280;5377;43.276;26.930;2023-04-15T02:06:29;98491.53;;;10.86;100.00
10658;BME280;5377;43.276;26.930;2023-04-15T02:08:56;98467.88;;;11.01;100.00
10658;BME280;5377;43.276;26.930;2023-04-15T02:11:23;98471.06;;;11.10;100.00
10658;BME280;5377;43.276;26.930;2023-04-15T02:13:50;98456.69;;;10.86;100.00
10658;BME280;5377;43.276;26.930;2023-04-15T02:16:17;98464.97;;;10.59;100.00
10658;BME280;5377;43.276;26.930;2023-04-15T02:18:46;98487.09;;;10.48;100.00
10658;BME280;5377;43.276;26.930;2023-04-15T02:21:12;98502.28;;;10.54;100.00
10658;BME280;5377;43.276;26.930;2023-04-15T02:23:39;98521.69;;;10.75;100.00
10658;BME280;5377;43.276;26.930;2023-04-15T02:26:06;98521.09;;;10.73;100.00
10658;BME280;5377;43.276;26.930;2023-04-15T02:28:33;98512.50;;;10.64;100.00
10658;BME280;5377;43.276;26.930;2023-04-15T02:31:04;98505.84;;;10.73;100.00
10658;BME280;5377;43.276;26.930;2023-04-15T02:33:31;98497.94;;;10.85;100.00
10658;BME280;5377;43.276;26.930;2023-04-15T02:35:59;98512.91;;;10.92;100.00
10658;BME280;5377;43.276;26.930;2023-04-15T02:38:26;98499.28;;;10.94;100.00
10658;BME280;5377;43.276;26.930;2023-04-15T02:40:53;98491.09;;;11.07;100.00
10658;BME280;5377;43.276;26.930;2023-04-15T02:43:19;98497.06;;;11.09;100.00
10658;BME280;5377;43.276;26.930;2023-04-15T02:45:46;98494.22;;;11.04;100.00
10658;BME280;5377;43.276;26.930;2023-04-15T02:48:13;98498.75;;;11.04;100.00
10658;BME280;5377;43.276;26.930;2023-04-15T02:50:42;98504.09;;;11.10;100.00
10658;BME280;5377;43.276;26.930;2023-04-15T02:53:10;98499.72;;;11.09;100.00
10658;BME280;5377;43.276;26.930;2023-04-15T02:55:39;98510.56;;;11.21;100.00
10658;BME280;5377;43.276;26.930;2023-04-15T02:58:07;98495.53;;;11.20;100.00
10658;BME280;5377;43.276;26.930;2023-04-15T03:00:33;98501.03;;;11.25;100.00
10658;BME280;5377;43.276;26.930;2023-04-15T03:03:02;98490.00;;;11.33;100.00
10658;BME280;5377;43.276;26.930;2023-04-15T03:05:29;98499.53;;;11.29;100.00
10658;BME280;5377;43.276;26.930;2023-04-15T03:07:56;98487.16;;;11.10;100.00
10658;BME280;5377;43.276;26.930;2023-04-15T03:10:24;98492.09;;;11.13;100.00
10658;BME280;5377;43.276;26.930;2023-04-15T03:12:51;98479.97;;;11.29;100.00
10658;BME280;5377;43.276;26.930;2023-04-15T03:15:18;98474.59;;;11.29;100.00
10658;BME280;5377;43.276;26.930;2023-04-15T03:17:44;98472.75;;;11.11;100.00
10658;BME280;5377;43.276;26.930;2023-04-15T03:20:13;98477.84;;;10.94;100.00
10658;BME280;5377;43.276;26.930;2023-04-15T03:22:40;98484.91;;;10.88;100.00
10658;BME280;5377;43.276;26.930;2023-04-15T03:25:07;98503.44;;;10.90;100.00
10658;BME280;5377;43.276;26.930;2023-04-15T03:27:37;98490.19;;;10.95;100.00
10658;BME280;5377;43.276;26.930;2023-04-15T03:30:04;98496.72;;;10.81;100.00
10658;BME280;5377;43.276;26.930;2023-04-15T03:32:32;98487.69;;;10.75;100.00
10658;BME280;5377;43.276;26.930;2023-04-15T03:34:58;98493.44;;;10.79;100.00
10658;BME280;5377;43.276;26.930;2023-04-15T03:37:25;98494.50;;;10.78;100.00
10658;BME280;5377;43.276;26.930;2023-04-15T03:39:52;98460.94;;;10.50;100.00
10658;BME280;5377;43.276;26.930;2023-04-15T03:42:19;98495.69;;;10.57;100.00
10658;BME280;5377;43.276;26.930;2023-04-15T03:44:47;98489.88;;;10.60;100.00
10658;BME280;5377;43.276;26.930;2023-04-15T03:47:13;98507.00;;;10.59;100.00
10658;BME280;5377;43.276;26.930;2023-04-15T03:49:40;98506.50;;;10.69;100.00
10658;BME280;5377;43.276;26.930;2023-04-15T03:52:07;98517.81;;;10.71;100.00
10658;BME280;5377;43.276;26.930;2023-04-15T03:54:34;98526.28;;;10.68;100.00
10658;BME280;5377;43.276;26.930;2023-04-15T03:57:01;98522.03;;;10.85;100.00
10658;BME280;5377;43.276;26.930;2023-04-15T03:59:28;98530.06;;;10.85;100.00
10658;BME280;5377;43.276;26.930;2023-04-15T04:01:56;98524.22;;;10.94;100.00
10658;BME280;5377;43.276;26.930;2023-04-15T04:04:23;98509.53;;;10.97;100.00
10658;BME280;5377;43.276;26.930;2023-04-15T04:06:49;98509.84;;;11.07;100.00
10658;BME280;5377;43.276;26.930;2023-04-15T04:09:16;98515.88;;;11.03;100.00
10658;BME280;5377;43.276;26.930;2023-04-15T04:11:43;98513.44;;;11.01;100.00
10658;BME280;5377;43.276;26.930;2023-04-15T04:14:11;98504.69;;;11.12;100.00
10658;BME280;5377;43.276;26.930;2023-04-15T04:16:37;98497.06;;;11.09;100.00
10658;BME280;5377;43.276;26.930;2023-04-15T04:19:05;98491.84;;;10.96;100.00
10658;BME280;5377;43.276;26.930;2023-04-15T04:21:32;98489.44;;;10.88;100.00
10658;BME280;5377;43.276;26.930;2023-04-15T04:23:59;98499.66;;;10.73;100.00
10658;BME280;5377;43.276;26.930;2023-04-15T04:26:26;98489.28;;;10.58;100.00
10658;BME280;5377;43.276;26.930;2023-04-15T04:28:53;98480.66;;;10.56;100.00
10658;BME280;5377;43.276;26.930;2023-04-15T04:31:20;98504.75;;;10.56;100.00
10658;BME280;5377;43.276;26.930;2023-04-15T04:33:46;98519.72;;;10.63;100.00
10658;BME280;5377;43.276;26.930;2023-04-15T04:36:15;98526.88;;;10.70;100.00
10658;BME280;5377;43.276;26.930;2023-04-15T04:38:41;98535.50;;;10.72;100.00
10658;BME280;5377;43.276;26.930;2023-04-15T04:41:08;98542.72;;;10.71;100.00
10658;BME280;5377;43.276;26.930;2023-04-15T04:43:35;98549.34;;;10.69;100.00
10658;BME280;5377;43.276;26.930;2023-04-15T04:46:02;98534.16;;;10.62;100.00
10658;BME280;5377;43.276;26.930;2023-04-15T04:48:28;98523.44;;;10.62;100.00
10658;BME280;5377;43.276;26.930;2023-04-15T04:50:55;98520.59;;;10.57;100.00
10658;BME280;5377;43.276;26.930;2023-04-15T04:53:23;98497.03;;;10.41;100.00
10658;BME280;5377;43.276;26.930;2023-04-15T04:55:50;98520.75;;;10.62;100.00
10658;BME280;5377;43.276;26.930;2023-04-15T04:58:17;98536.34;;;10.72;100.00
10658;BME280;5377;43.276;26.930;2023-04-15T05:00:44;98536.31;;;10.79;100.00
10658;BME280;5377;43.276;26.930;2023-04-15T05:03:11;98559.03;;;10.94;100.00
10658;BME280;5377;43.276;26.930;2023-04-15T05:05:38;98556.91;;;11.03;100.00
10658;BME280;5377;43.276;26.930;2023-04-15T05:08:05;98555.59;;;11.12;100.00
10658;BME280;5377;43.276;26.930;2023-04-15T05:10:34;98554.13;;;11.16;100.00
10658;BME280;5377;43.276;26.930;2023-04-15T05:13:00;98558.75;;;11.28;100.00
10658;BME280;5377;43.276;26.930;2023-04-15T05:15:27;98558.69;;;11.34;100.00
10658;BME280;5377;43.276;26.930;2023-04-15T05:17:54;98569.25;;;11.29;100.00
10658;BME280;5377;43.276;26.930;2023-04-15T05:20:21;98583.34;;;11.43;100.00
10658;BME280;5377;43.276;26.930;2023-04-15T05:22:47;98599.53;;;11.54;100.00
10658;BME280;5377;43.276;26.930;2023-04-15T05:25:14;98606.75;;;11.54;100.00
10658;BME280;5377;43.276;26.930;2023-04-15T05:27:43;98582.47;;;11.49;100.00
10658;BME280;5377;43.276;26.930;2023-04-15T05:30:10;98561.50;;;11.39;100.00
10658;BME280;5377;43.276;26.930;2023-04-15T05:32:37;98506.59;;;11.05;100.00
10658;BME280;5377;43.276;26.930;2023-04-15T05:35:05;98543.84;;;11.32;100.00
10658;BME280;5377;43.276;26.930;2023-04-15T05:37:32;98539.91;;;11.34;100.00
10658;BME280;5377;43.276;26.930;2023-04-15T05:39:59;98537.75;;;11.43;100.00
10658;BME280;5377;43.276;26.930;2023-04-15T05:42:26;98530.84;;;11.53;100.00
10658;BME280;5377;43.276;26.930;2023-04-15T05:44:54;98530.31;;;11.63;100.00
10658;BME280;5377;43.276;26.930;2023-04-15T05:47:21;98517.50;;;11.65;100.00
10658;BME280;5377;43.276;26.930;2023-04-15T05:49:48;98537.78;;;11.79;100.00
10658;BME280;5377;43.276;26.930;2023-04-15T05:52:15;98558.22;;;11.80;100.00
10658;BME280;5377;43.276;26.930;2023-04-15T05:54:42;98571.19;;;11.83;100.00
10658;BME280;5377;43.276;26.930;2023-04-15T05:57:09;98568.28;;;11.85;100.00
10658;BME280;5377;43.276;26.930;2023-04-15T05:59:36;98566.28;;;11.80;100.00
10658;BME280;5377;43.276;26.930;2023-04-15T06:02:05;98571.97;;;12.02;100.00
10658;BME280;5377;43.276;26.930;2023-04-15T06:04:32;98572.25;;;12.12;100.00
10658;BME280;5377;43.276;26.930;2023-04-15T06:06:58;98577.09;;;12.22;100.00
10658;BME280;5377;43.276;26.930;2023-04-15T06:09:25;98577.84;;;12.29;100.00
10658;BME280;5377;43.276;26.930;2023-04-15T06:11:53;98589.13;;;12.49;100.00
10658;BME280;5377;43.276;26.930;2023-04-15T06:14:20;98569.09;;;12.64;100.00
10658;BME280;5377;43.276;26.930;2023-04-15T06:16:47;98558.84;;;12.84;100.00
10658;BME280;5377;43.276;26.930;2023-04-15T06:19:15;98553.47;;;12.84;100.00
10658;BME280;5377;43.276;26.930;2023-04-15T06:21:43;98566.56;;;12.92;100.00
10658;BME280;5377;43.276;26.930;2023-04-15T06:24:10;98562.72;;;13.00;100.00
10658;BME280;5377;43.276;26.930;2023-04-15T06:26:37;98573.59;;;13.17;100.00
10658;BME280;5377;43.276;26.930;2023-04-15T06:29:04;98572.84;;;13.28;100.00
10658;BME280;5377;43.276;26.930;2023-04-15T06:31:30;98574.28;;;13.12;100.00
10658;BME280;5377;43.276;26.930;2023-04-15T06:33:57;98573.81;;;13.03;100.00
10658;BME280;5377;43.276;26.930;2023-04-15T06:36:25;98582.72;;;13.16;100.00
10658;BME280;5377;43.276;26.930;2023-04-15T06:38:52;98575.94;;;13.13;100.00
10658;BME280;5377;43.276;26.930;2023-04-15T06:41:19;98580.22;;;13.21;100.00
10658;BME280;5377;43.276;26.930;2023-04-15T06:43:46;98573.53;;;13.23;100.00
10658;BME280;5377;43.276;26.930;2023-04-15T06:46:12;98574.81;;;13.21;100.00
10658;BME280;5377;43.276;26.930;2023-04-15T06:48:39;98573.47;;;13.11;100.00
10658;BME280;5377;43.276;26.930;2023-04-15T06:51:06;98568.00;;;13.06;100.00
10658;BME280;5377;43.276;26.930;2023-04-15T06:53:34;98573.59;;;13.17;100.00
10658;BME280;5377;43.276;26.930;2023-04-15T06:56:06;98583.13;;;13.42;100.00
10658;BME280;5377;43.276;26.930;2023-04-15T06:58:33;98581.94;;;13.62;100.00
10658;BME280;5377;43.276;26.930;2023-04-15T07:01:00;98579.72;;;13.59;100.00
10658;BME280;5377;43.276;26.930;2023-04-15T07:03:27;98581.91;;;13.85;100.00
10658;BME280;5377;43.276;26.930;2023-04-15T07:05:54;98571.25;;;13.79;100.00
10658;BME280;5377;43.276;26.930;2023-04-15T07:08:21;98577.25;;;13.69;100.00
10658;BME280;5377;43.276;26.930;2023-04-15T07:10:50;98569.38;;;13.79;100.00
10658;BME280;5377;43.276;26.930;2023-04-15T07:13:16;98572.94;;;13.68;100.00
10658;BME280;5377;43.276;26.930;2023-04-15T07:15:43;98577.56;;;13.84;100.00
10658;BME280;5377;43.276;26.930;2023-04-15T07:18:10;98580.72;;;13.93;100.00
10658;BME280;5377;43.276;26.930;2023-04-15T07:20:37;98580.97;;;13.91;100.00
10658;BME280;5377;43.276;26.930;2023-04-15T07:23:04;98579.34;;;13.90;100.00
10658;BME280;5377;43.276;26.930;2023-04-15T07:25:31;98582.03;;;14.19;100.00
10658;BME280;5377;43.276;26.930;2023-04-15T07:27:59;98593.41;;;14.21;100.00
10658;BME280;5377;43.276;26.930;2023-04-15T07:30:26;98593.22;;;14.39;100.00
10658;BME280;5377;43.276;26.930;2023-04-15T07:32:53;98585.53;;;14.31;100.00
10658;BME280;5377;43.276;26.930;2023-04-15T07:35:20;98585.94;;;14.51;100.00
10658;BME280;5377;43.276;26.930;2023-04-15T07:37:47;98604.31;;;14.54;100.00
10658;BME280;5377;43.276;26.930;2023-04-15T07:40:15;98606.28;;;14.30;100.00
10658;BME280;5377;43.276;26.930;2023-04-15T07:42:41;98595.41;;;14.54;100.00
10658;BME280;5377;43.276;26.930;2023-04-15T07:45:10;98596.88;;;14.45;100.00
10658;BME280;5377;43.276;26.930;2023-04-15T07:47:37;98602.44;;;14.55;100.00
10658;BME280;5377;43.276;26.930;2023-04-15T07:50:05;98605.59;;;14.63;100.00
10658;BME280;5377;43.276;26.930;2023-04-15T07:52:33;98618.50;;;14.78;100.00
10658;BME280;5377;43.276;26.930;2023-04-15T07:55:04;98614.81;;;14.68;100.00
10658;BME280;5377;43.276;26.930;2023-04-15T07:57:31;98621.84;;;14.69;100.00
10658;BME280;5377;43.276;26.930;2023-04-15T07:59:59;98615.88;;;14.66;100.00
10658;BME280;5377;43.276;26.930;2023-04-15T08:02:27;98627.81;;;14.71;100.00
10658;BME280;5377;43.276;26.930;2023-04-15T08:04:54;98617.88;;;14.88;100.00
10658;BME280;5377;43.276;26.930;2023-04-15T08:07:22;98619.38;;;15.12;100.00
10658;BME280;5377;43.276;26.930;2023-04-15T08:09:49;98614.72;;;15.24;100.00
10658;BME280;5377;43.276;26.930;2023-04-15T08:12:16;98616.75;;;15.51;100.00
10658;BME280;5377;43.276;26.930;2023-04-15T08:14:43;98611.16;;;15.57;100.00
10658;BME280;5377;43.276;26.930;2023-04-15T08:17:10;98609.81;;;15.72;100.00
10658;BME280;5377;43.276;26.930;2023-04-15T08:19:39;98595.47;;;15.54;100.00
10658;BME280;5377;43.276;26.930;2023-04-15T08:22:06;98598.13;;;15.33;100.00
10658;BME280;5377;43.276;26.930;2023-04-15T08:24:33;98604.84;;;15.30;100.00
10658;BME280;5377;43.276;26.930;2023-04-15T08:27:01;98601.72;;;15.38;100.00
10658;BME280;5377;43.276;26.930;2023-04-15T08:29:30;98605.69;;;15.52;100.00
10658;BME280;5377;43.276;26.930;2023-04-15T08:31:58;98605.19;;;15.55;100.00
10658;BME280;5377;43.276;26.930;2023-04-15T08:34:25;98609.22;;;15.53;100.00
10658;BME280;5377;43.276;26.930;2023-04-15T08:36:53;98624.81;;;15.63;100.00
10658;BME280;5377;43.276;26.930;2023-04-15T08:39:20;98626.28;;;15.92;100.00
10658;BME280;5377;43.276;26.930;2023-04-15T08:41:50;98612.22;;;16.34;100.00
10658;BME280;5377;43.276;26.930;2023-04-15T08:44:17;98624.44;;;16.63;100.00
10658;BME280;5377;43.276;26.930;2023-04-15T08:46:45;98610.38;;;16.88;100.00
10658;BME280;5377;43.276;26.930;2023-04-15T08:49:12;98609.81;;;17.45;100.00
10658;BME280;5377;43.276;26.930;2023-04-15T08:51:40;98605.44;;;17.76;100.00
10658;BME280;5377;43.276;26.930;2023-04-15T08:54:08;98587.97;;;18.82;94.23
10658;BME280;5377;43.276;26.930;2023-04-15T08:56:37;98584.16;;;18.93;93.59
10658;BME280;5377;43.276;26.930;2023-04-15T08:59:05;98589.03;;;19.06;92.62
10658;BME280;5377;43.276;26.930;2023-04-15T09:01:32;98593.38;;;18.87;85.64
10658;BME280;5377;43.276;26.930;2023-04-15T09:04:01;98583.38;;;19.13;86.89
10658;BME280;5377;43.276;26.930;2023-04-15T09:06:30;98589.06;;;19.47;83.32
10658;BME280;5377;43.276;26.930;2023-04-15T09:08:57;98583.06;;;19.65;81.95
10658;BME280;5377;43.276;26.930;2023-04-15T09:11:25;98581.50;;;20.29;79.93
10658;BME280;5377;43.276;26.930;2023-04-15T09:13:52;98580.63;;;19.43;77.70
10658;BME280;5377;43.276;26.930;2023-04-15T09:16:19;98572.75;;;18.81;81.65
10658;BME280;5377;43.276;26.930;2023-04-15T09:18:46;98587.69;;;18.78;84.67
10658;BME280;5377;43.276;26.930;2023-04-15T09:21:14;98572.66;;;18.45;85.17
10658;BME280;5377;43.276;26.930;2023-04-15T09:23:53;98573.22;;;18.52;87.17
10658;BME280;5377;43.276;26.930;2023-04-15T09:26:31;98564.09;;;19.14;82.54
10658;BME280;5377;43.276;26.930;2023-04-15T09:29:06;98570.56;;;19.64;78.04
10658;BME280;5377;43.276;26.930;2023-04-15T09:31:33;98568.28;;;20.61;75.99
10658;BME280;5377;43.276;26.930;2023-04-15T09:34:01;98568.81;;;21.02;71.12
10658;BME280;5377;43.276;26.930;2023-04-15T09:36:28;98556.59;;;22.10;67.74
10658;BME280;5377;43.276;26.930;2023-04-15T09:38:56;98557.16;;;22.31;65.13
10658;BME280;5377;43.276;26.930;2023-04-15T09:41:23;98552.38;;;22.80;63.72
10658;BME280;5377;43.276;26.930;2023-04-15T09:43:51;98557.09;;;23.12;59.75
10658;BME280;5377;43.276;26.930;2023-04-15T09:46:18;98546.03;;;23.03;58.90
10658;BME280;5377;43.276;26.930;2023-04-15T09:48:45;98550.47;;;22.24;59.44
10658;BME280;5377;43.276;26.930;2023-04-15T09:51:12;98537.97;;;22.18;60.99
10658;BME280;5377;43.276;26.930;2023-04-15T09:53:39;98564.66;;;21.73;60.42
10658;BME280;5377;43.276;26.930;2023-04-15T09:56:07;98551.25;;;22.24;61.11
10658;BME280;5377;43.276;26.930;2023-04-15T09:58:35;98545.16;;;23.21;59.17
10658;BME280;5377;43.276;26.930;2023-04-15T10:01:04;98551.38;;;23.59;57.08
10658;BME280;5377;43.276;26.930;2023-04-15T10:03:34;98552.28;;;22.28;56.93
10658;BME280;5377;43.276;26.930;2023-04-15T10:06:02;98546.69;;;22.38;58.65
10658;BME280;5377;43.276;26.930;2023-04-15T10:08:31;98550.44;;;22.00;59.85
10658;BME280;5377;43.276;26.930;2023-04-15T10:11:00;98549.63;;;21.75;60.38
10658;BME280;5377;43.276;26.930;2023-04-15T10:13:30;98550.97;;;21.54;61.14
10658;BME280;5377;43.276;26.930;2023-04-15T10:16:06;98553.16;;;21.76;61.41
10658;BME280;5377;43.276;26.930;2023-04-15T10:18:34;98545.13;;;22.51;60.19
10658;BME280;5377;43.276;26.930;2023-04-15T10:21:01;98534.75;;;23.23;58.48
10658;BME280;5377;43.276;26.930;2023-04-15T10:23:31;98529.53;;;23.41;55.82
10658;BME280;5377;43.276;26.930;2023-04-15T10:25:58;98518.97;;;23.67;54.74
10658;BME280;5377;43.276;26.930;2023-04-15T10:28:26;98533.16;;;23.36;53.94
10658;BME280;5377;43.276;26.930;2023-04-15T10:30:53;98526.63;;;22.67;55.73
10658;BME280;5377;43.276;26.930;2023-04-15T10:33:23;98532.09;;;23.18;55.24
10658;BME280;5377;43.276;26.930;2023-04-15T10:35:51;98520.50;;;22.94;54.55
10658;BME280;5377;43.276;26.930;2023-04-15T10:38:32;98527.56;;;23.74;54.07
10658;BME280;5377;43.276;26.930;2023-04-15T10:41:12;98521.88;;;24.11;52.71
10658;BME280;5377;43.276;26.930;2023-04-15T10:43:39;98528.78;;;24.09;50.49
10658;BME280;5377;43.276;26.930;2023-04-15T10:46:10;98527.03;;;24.40;50.83
10658;BME280;5377;43.276;26.930;2023-04-15T10:48:46;98506.66;;;24.19;50.19
10658;BME280;5377;43.276;26.930;2023-04-15T10:51:13;98529.38;;;24.19;50.72
10658;BME280;5377;43.276;26.930;2023-04-15T10:53:41;98520.75;;;24.12;50.48
10658;BME280;5377;43.276;26.930;2023-04-15T10:56:09;98521.38;;;24.37;48.01
10658;BME280;5377;43.276;26.930;2023-04-15T10:58:40;98531.97;;;24.52;47.25
10658;BME280;5377;43.276;26.930;2023-04-15T11:01:07;98529.09;;;24.57;47.29
10658;BME280;5377;43.276;26.930;2023-04-15T11:03:36;98517.19;;;23.43;48.30
10658;BME280;5377;43.276;26.930;2023-04-15T11:06:05;98515.78;;;23.46;49.48
10658;BME280;5377;43.276;26.930;2023-04-15T11:08:54;98532.78;;;23.43;48.13
10658;BME280;5377;43.276;26.930;2023-04-15T11:11:29;98518.38;;;22.34;45.96
10658;BME280;5377;43.276;26.930;2023-04-15T11:14:15;98537.97;;;21.94;48.06
10658;BME280;5377;43.276;26.930;2023-04-15T11:16:42;98518.16;;;21.88;49.30
10658;BME280;5377;43.276;26.930;2023-04-15T11:19:10;98530.84;;;21.98;48.93
10658;BME280;5377;43.276;26.930;2023-04-15T11:21:38;98542.16;;;21.33;48.75
10658;BME280;5377;43.276;26.930;2023-04-15T11:24:05;98543.75;;;21.05;51.07
10658;BME280;5377;43.276;26.930;2023-04-15T11:26:32;98543.53;;;20.63;53.75
10658;BME280;5377;43.276;26.930;2023-04-15T11:28:59;98547.53;;;20.70;53.68
10658;BME280;5377;43.276;26.930;2023-04-15T11:31:26;98548.78;;;20.39;52.04
10658;BME280;5377;43.276;26.930;2023-04-15T11:33:55;98542.28;;;20.35;56.01
10658;BME280;5377;43.276;26.930;2023-04-15T11:36:26;98542.16;;;20.06;58.38
10658;BME280;5377;43.276;26.930;2023-04-15T11:38:56;98543.94;;;19.51;59.60
10658;BME280;5377;43.276;26.930;2023-04-15T11:41:24;98537.66;;;19.81;59.68
10658;BME280;5377;43.276;26.930;2023-04-15T11:43:51;98550.47;;;19.60;59.89
10658;BME280;5377;43.276;26.930;2023-04-15T11:46:19;98560.25;;;19.61;59.46
10658;BME280;5377;43.276;26.930;2023-04-15T11:48:46;98549.06;;;19.83;59.95
10658;BME280;5377;43.276;26.930;2023-04-15T11:51:13;98547.66;;;19.96;60.00
10658;BME280;5377;43.276;26.930;2023-04-15T11:53:42;98550.66;;;19.94;58.97
10658;BME280;5377;43.276;26.930;2023-04-15T11:56:16;98537.81;;;20.05;59.04
10658;BME280;5377;43.276;26.930;2023-04-15T11:58:44;98544.06;;;20.05;59.17
10658;BME280;5377;43.276;26.930;2023-04-15T12:01:11;98542.69;;;20.08;57.64
10658;BME280;5377;43.276;26.930;2023-04-15T12:03:39;98542.69;;;20.08;57.50
10658;BME280;5377;43.276;26.930;2023-04-15T12:06:14;98542.81;;;20.42;56.64
10658;BME280;5377;43.276;26.930;2023-04-15T12:09:09;98533.00;;;21.24;55.25
10658;BME280;5377;43.276;26.930;2023-04-15T12:11:45;98537.66;;;21.47;51.61
10658;BME280;5377;43.276;26.930;2023-04-15T12:14:19;98535.41;;;21.78;51.48
10658;BME280;5377;43.276;26.930;2023-04-15T12:16:48;98536.59;;;22.58;51.18
10658;BME280;5377;43.276;26.930;2023-04-15T12:19:17;98528.19;;;23.71;49.71
10658;BME280;5377;43.276;26.930;2023-04-15T12:21:46;98534.03;;;23.18;49.38
10658;BME280;5377;43.276;26.930;2023-04-15T12:24:13;98539.56;;;22.61;50.94
10658;BME280;5377;43.276;26.930;2023-04-15T12:26:46;98526.53;;;23.10;49.72
10658;BME280;5377;43.276;26.930;2023-04-15T12:29:15;98532.97;;;22.44;49.82
10658;BME280;5377;43.276;26.930;2023-04-15T12:31:50;98534.59;;;22.02;50.28
10658;BME280;5377;43.276;26.930;2023-04-15T12:34:18;98530.66;;;22.13;50.38
10658;BME280;5377;43.276;26.930;2023-04-15T12:36:51;98529.81;;;22.36;50.16
10658;BME280;5377;43.276;26.930;2023-04-15T12:39:21;98522.78;;;22.49;49.77
10658;BME280;5377;43.276;26.930;2023-04-15T12:41:49;98522.50;;;22.51;51.11
10658;BME280;5377;43.276;26.930;2023-04-15T12:44:16;98517.56;;;22.34;48.82
10658;BME280;5377;43.276;26.930;2023-04-15T12:46:43;98523.16;;;22.00;47.62
10658;BME280;5377;43.276;26.930;2023-04-15T12:49:10;98526.63;;;21.87;46.85
10658;BME280;5377;43.276;26.930;2023-04-15T12:51:39;98523.75;;;21.97;47.44
10658;BME280;5377;43.276;26.930;2023-04-15T12:54:05;98520.50;;;21.95;47.38
10658;BME280;5377;43.276;26.930;2023-04-15T12:56:32;98512.81;;;22.77;46.95